createdAt,value
2022-10-18T00:01:24.141Z,19.00
2022-10-18T00:07:17.624Z,19.10
2022-10-18T00:09:56.511Z,19.10
2022-10-18T00:18:30.978Z,19.00
2022-10-18T00:21:26.161Z,19.00
2022-10-18T00:27:02.725Z,19.00
2022-10-18T00:32:42.409Z,18.90
2022-10-18T00:35:34.597Z,18.80
2022-10-18T00:38:24.778Z,19.00
2022-10-18T00:41:13.495Z,19.00
2022-10-18T00:47:16.545Z,19.20
2022-10-18T00:50:09.220Z,19.20
2022-10-18T00:55:55.198Z,18.90
2022-10-18T00:58:40.051Z,19.00
2022-10-18T01:01:18.983Z,19.10
2022-10-18T01:04:01.367Z,18.90
2022-10-18T01:06:53.132Z,19.00
2022-10-18T01:09:37.441Z,19.10
2022-10-18T01:12:30.537Z,19.20
2022-10-18T01:15:17.662Z,19.30
2022-10-18T01:18:11.218Z,19.40
2022-10-18T01:21:48.873Z,19.50
2022-10-18T01:24:57.120Z,19.50
2022-10-18T01:28:02.343Z,19.70
2022-10-18T01:31:03.617Z,19.90
2022-10-18T01:33:47.506Z,20.10
2022-10-18T01:36:35.804Z,20.20
2022-10-18T01:42:33.202Z,20.50
2022-10-18T01:45:19.929Z,20.90
2022-10-18T01:48:43.763Z,21.10
2022-10-18T01:51:49.309Z,21.40
2022-10-18T01:54:45.771Z,22.10
2022-10-18T01:57:37.560Z,22.40
2022-10-18T02:00:19.006Z,22.70
2022-10-18T02:03:03.216Z,23.20
2022-10-18T02:05:57.227Z,23.50
2022-10-18T02:12:12.015Z,24.40
2022-10-18T02:14:59.747Z,24.40
2022-10-18T02:17:40.125Z,24.80
2022-10-18T02:20:52.063Z,24.20
2022-10-18T02:23:45.209Z,24.60
2022-10-18T02:26:26.681Z,25.40
2022-10-18T02:29:09.867Z,25.50
2022-10-18T02:31:53.807Z,25.90
2022-10-18T02:34:35.634Z,26.80
2022-10-18T02:37:17.771Z,26.80
2022-10-18T02:40:00.771Z,26.90
2022-10-18T02:42:47.635Z,27.10
2022-10-18T02:45:46.018Z,27.10
2022-10-18T02:48:27.688Z,27.20
2022-10-18T02:51:06.907Z,26.80
2022-10-18T02:53:45.508Z,26.40
2022-10-18T02:56:23.732Z,26.30
2022-10-18T02:59:03.072Z,25.90
2022-10-18T03:01:45.726Z,26.00
2022-10-18T03:04:34.764Z,25.80
2022-10-18T03:10:11.734Z,25.90
2022-10-18T03:12:46.974Z,26.20
2022-10-18T03:15:27.068Z,25.50
2022-10-18T03:18:03.970Z,25.00
2022-10-18T03:20:39.383Z,25.20
2022-10-18T03:23:14.263Z,25.20
2022-10-18T03:25:51.039Z,25.30
2022-10-18T03:28:26.991Z,25.10
2022-10-18T03:31:06.001Z,24.90
2022-10-18T03:33:41.750Z,24.80
2022-10-18T03:36:17.021Z,24.90
2022-10-18T03:38:52.562Z,24.70
2022-10-18T03:41:28.500Z,24.70
2022-10-18T03:44:02.693Z,24.70
2022-10-18T03:46:38.122Z,24.90
2022-10-18T03:49:13.748Z,25.00
2022-10-18T03:51:50.609Z,25.30
2022-10-18T03:54:25.748Z,25.30
2022-10-18T03:57:02.826Z,25.30
2022-10-18T03:59:39.751Z,25.10
2022-10-18T04:02:14.682Z,24.90
2022-10-18T04:04:49.620Z,24.70
2022-10-18T04:07:27.466Z,24.90
2022-10-18T04:10:06.728Z,25.10
2022-10-18T04:12:47.792Z,25.30
2022-10-18T04:15:22.886Z,25.40
2022-10-18T04:17:58.536Z,25.50
2022-10-18T04:20:39.039Z,25.60
2022-10-18T04:23:16.974Z,25.80
2022-10-18T04:25:53.001Z,25.80
2022-10-18T04:28:32.711Z,25.60
2022-10-18T04:31:08.214Z,25.60
2022-10-18T04:33:43.926Z,25.70
2022-10-18T04:36:20.257Z,25.70
2022-10-18T04:39:12.954Z,25.60
2022-10-18T04:41:52.232Z,25.70
2022-10-18T04:44:32.817Z,25.60
2022-10-18T04:47:16.310Z,25.60
2022-10-18T04:49:51.930Z,25.90
2022-10-18T04:52:26.691Z,25.90
2022-10-18T04:55:02.008Z,25.90
2022-10-18T04:57:37.136Z,26.10
2022-10-18T05:00:18.500Z,26.20
2022-10-18T05:03:01.618Z,26.10
2022-10-18T05:05:49.609Z,26.10
2022-10-18T05:08:36.921Z,26.00
2022-10-18T05:11:15.526Z,26.40
2022-10-18T05:16:49.979Z,26.50
2022-10-18T05:19:27.030Z,26.50
2022-10-18T05:22:03.265Z,26.40
2022-10-18T05:24:42.025Z,26.30
2022-10-18T05:27:25.573Z,26.40
2022-10-18T05:30:05.460Z,26.20
2022-10-18T05:32:48.234Z,26.10
2022-10-18T05:35:26.154Z,26.40
2022-10-18T05:38:01.389Z,26.20
2022-10-18T05:40:38.060Z,26.20
2022-10-18T05:43:13.671Z,26.20
2022-10-18T05:45:57.092Z,26.60
2022-10-18T05:48:35.847Z,26.60
2022-10-18T05:51:12.838Z,26.70
2022-10-18T05:53:49.490Z,26.80
2022-10-18T05:56:24.554Z,26.50
2022-10-18T05:59:00.257Z,26.50
2022-10-18T06:01:38.306Z,26.40
2022-10-18T06:04:21.954Z,26.40
2022-10-18T06:07:02.741Z,26.50
2022-10-18T06:09:44.337Z,26.70
2022-10-18T06:12:24.316Z,26.60
2022-10-18T06:15:01.527Z,26.30
2022-10-18T06:17:42.037Z,26.20
2022-10-18T06:20:22.628Z,26.20
2022-10-18T06:23:00.833Z,26.20
2022-10-18T06:25:40.498Z,26.30
2022-10-18T06:28:16.439Z,26.00
2022-10-18T06:31:05.793Z,26.10
2022-10-18T06:33:41.271Z,25.90
2022-10-18T06:36:23.828Z,25.80
2022-10-18T06:39:01.260Z,26.00
2022-10-18T06:41:39.466Z,26.10
2022-10-18T06:44:27.110Z,26.10
2022-10-18T06:47:05.048Z,26.20
2022-10-18T06:49:41.179Z,26.10
2022-10-18T06:52:22.131Z,26.10
2022-10-18T06:54:58.502Z,26.20
2022-10-18T06:57:39.160Z,26.30
2022-10-18T07:00:24.445Z,26.10
2022-10-18T07:03:10.674Z,25.80
2022-10-18T07:05:56.581Z,25.70
2022-10-18T07:08:39.504Z,25.50
2022-10-18T07:11:18.756Z,25.50
2022-10-18T07:13:55.454Z,25.50
2022-10-18T07:16:31.600Z,25.40
2022-10-18T07:19:09.849Z,25.40
2022-10-18T07:21:46.674Z,25.40
2022-10-18T07:24:28.566Z,25.50
2022-10-18T07:27:05.818Z,25.70
2022-10-18T07:29:44.401Z,25.50
2022-10-18T07:32:25.246Z,25.70
2022-10-18T07:35:04.330Z,25.60
2022-10-18T07:37:39.619Z,25.50
2022-10-18T07:40:24.204Z,25.60
2022-10-18T07:43:04.500Z,25.60
2022-10-18T07:45:41.118Z,25.40
2022-10-18T07:48:16.227Z,25.40
2022-10-18T07:50:54.607Z,25.50
2022-10-18T07:53:30.297Z,25.50
2022-10-18T07:56:18.751Z,25.70
2022-10-18T07:58:57.655Z,25.60
2022-10-18T08:01:33.871Z,25.50
2022-10-18T08:04:15.495Z,25.40
2022-10-18T08:06:52.505Z,25.50
2022-10-18T08:09:27.622Z,25.60
2022-10-18T08:12:09.369Z,25.60
2022-10-18T08:14:48.564Z,25.50
2022-10-18T08:17:25.246Z,25.30
2022-10-18T08:20:11.693Z,25.30
2022-10-18T08:22:49.484Z,25.20
2022-10-18T08:25:25.800Z,25.20
2022-10-18T08:28:05.722Z,25.10
2022-10-18T08:30:44.430Z,25.20
2022-10-18T08:33:21.543Z,25.10
2022-10-18T08:36:12.456Z,25.00
2022-10-18T08:38:48.641Z,25.00
2022-10-18T08:41:54.656Z,25.10
2022-10-18T08:44:38.769Z,25.00
2022-10-18T08:47:22.098Z,25.00
2022-10-18T08:50:04.175Z,24.80
2022-10-18T08:52:49.058Z,24.70
2022-10-18T08:55:37.685Z,24.80
2022-10-18T08:58:22.106Z,24.90
2022-10-18T09:01:12.335Z,24.90
2022-10-18T09:04:11.979Z,25.00
2022-10-18T09:06:53.551Z,24.80
2022-10-18T09:09:41.145Z,24.90
2022-10-18T09:12:35.632Z,24.90
2022-10-18T09:15:38.047Z,24.80
2022-10-18T09:18:33.712Z,24.70
2022-10-18T09:21:22.376Z,24.80
2022-10-18T09:24:07.549Z,24.70
2022-10-18T09:27:08.730Z,24.60
2022-10-18T09:29:57.006Z,24.60
2022-10-18T09:32:38.545Z,24.50
2022-10-18T09:35:24.789Z,24.50
2022-10-18T09:38:07.287Z,24.50
2022-10-18T09:40:49.353Z,24.40
2022-10-18T09:43:28.451Z,24.40
2022-10-18T09:46:06.252Z,24.30
2022-10-18T09:48:49.266Z,24.40
2022-10-18T09:51:29.807Z,24.30
2022-10-18T09:54:26.003Z,24.20
2022-10-18T09:57:07.390Z,24.10
2022-10-18T09:59:54.664Z,24.10
2022-10-18T10:02:30.073Z,24.00
2022-10-18T10:05:04.741Z,24.00
2022-10-18T10:07:50.740Z,23.90
2022-10-18T10:10:28.852Z,23.90
2022-10-18T10:13:11.095Z,23.80
2022-10-18T10:15:56.879Z,23.70
2022-10-18T10:18:34.626Z,23.70
2022-10-18T10:21:12.102Z,23.60
2022-10-18T10:23:56.229Z,23.60
2022-10-18T10:26:39.523Z,23.50
2022-10-18T10:30:07.504Z,23.40
2022-10-18T10:32:53.932Z,23.30
2022-10-18T10:35:54.566Z,23.30
2022-10-18T10:38:32.608Z,23.20
2022-10-18T10:41:23.081Z,23.20
2022-10-18T10:43:59.085Z,23.10
2022-10-18T10:46:45.454Z,23.10
2022-10-18T10:49:39.606Z,23.00
2022-10-18T10:52:27.341Z,23.00
2022-10-18T10:55:16.746Z,23.00
2022-10-18T10:58:02.195Z,23.00
2022-10-18T11:00:48.087Z,22.90
2022-10-18T11:03:29.027Z,22.90
2022-10-18T11:06:05.431Z,22.80
2022-10-18T11:11:32.891Z,22.80
2022-10-18T11:14:26.476Z,22.80
2022-10-18T11:17:10.253Z,22.70
2022-10-18T11:20:12.107Z,22.70
2022-10-18T11:22:51.834Z,22.60
2022-10-18T11:25:32.760Z,22.60
2022-10-18T11:28:15.791Z,22.60
2022-10-18T11:31:01.569Z,22.50
2022-10-18T11:34:07.548Z,22.50
2022-10-18T11:37:09.747Z,22.50
2022-10-18T11:40:06.113Z,22.40
2022-10-18T11:42:53.599Z,22.40
2022-10-18T11:45:40.509Z,22.30
2022-10-18T11:48:51.118Z,22.30
2022-10-18T11:51:50.278Z,22.30
2022-10-18T11:54:59.367Z,22.30
2022-10-18T11:57:58.336Z,22.20
2022-10-18T12:00:52.587Z,22.20
2022-10-18T12:03:43.537Z,22.20
2022-10-18T12:06:22.493Z,22.20
2022-10-18T12:09:04.298Z,22.20
2022-10-18T12:11:50.224Z,22.10
2022-10-18T12:14:35.915Z,22.10
2022-10-18T12:17:42.870Z,22.10
2022-10-18T12:20:25.928Z,22.00
2022-10-18T12:23:13.645Z,22.00
2022-10-18T12:25:54.327Z,22.00
2022-10-18T12:28:39.343Z,21.90
2022-10-18T12:31:39.427Z,21.90
2022-10-18T12:34:41.154Z,21.90
2022-10-18T12:37:42.492Z,21.90
2022-10-18T12:40:22.085Z,21.80
2022-10-18T12:42:58.958Z,21.70
2022-10-18T12:45:36.731Z,21.70
2022-10-18T12:48:33.504Z,21.70
2022-10-18T12:51:23.080Z,21.70
2022-10-18T12:54:26.282Z,21.70
2022-10-18T12:57:11.376Z,21.70
2022-10-18T12:59:49.913Z,21.70
2022-10-18T13:02:33.863Z,21.70
2022-10-18T13:06:04.256Z,21.60
2022-10-18T13:08:49.652Z,21.60
2022-10-18T13:12:03.215Z,21.60
2022-10-18T13:15:24.182Z,21.60
2022-10-18T13:18:11.973Z,21.60
2022-10-18T13:20:53.902Z,21.50
2022-10-18T13:23:43.543Z,21.50
2022-10-18T13:26:35.522Z,21.60
2022-10-18T13:29:52.570Z,21.50
2022-10-18T13:32:38.727Z,21.50
2022-10-18T13:35:50.893Z,21.50
2022-10-18T13:38:52.665Z,21.50
2022-10-18T13:41:34.253Z,21.50
2022-10-18T13:44:43.189Z,21.40
2022-10-18T13:47:42.102Z,21.40
2022-10-18T13:50:51.311Z,21.40
2022-10-18T13:53:44.291Z,21.30
2022-10-18T13:57:00.285Z,21.30
2022-10-18T13:59:56.618Z,21.30
2022-10-18T14:03:31.699Z,21.30
2022-10-18T14:06:18.060Z,21.20
2022-10-18T14:09:25.750Z,21.20
2022-10-18T14:12:13.665Z,21.20
2022-10-18T14:14:53.251Z,21.20
2022-10-18T14:20:40.017Z,21.20
2022-10-18T14:23:39.135Z,21.20
2022-10-18T14:26:24.528Z,21.20
2022-10-18T14:29:12.295Z,21.10
2022-10-18T14:31:58.096Z,21.10
2022-10-18T14:34:34.660Z,21.10
2022-10-18T14:37:18.409Z,21.10
2022-10-18T14:39:59.917Z,21.10
2022-10-18T14:42:40.882Z,21.10
2022-10-18T14:45:29.347Z,21.10
2022-10-18T14:48:32.948Z,21.00
2022-10-18T14:51:12.015Z,21.00
2022-10-18T14:53:52.492Z,21.00
2022-10-18T14:56:34.242Z,21.00
2022-10-18T14:59:26.099Z,21.00
2022-10-18T15:02:09.688Z,21.00
2022-10-18T15:05:00.260Z,21.00
2022-10-18T15:07:37.857Z,21.00
2022-10-18T15:10:23.249Z,21.00
2022-10-18T15:24:34.469Z,21.10
2022-10-18T15:27:31.359Z,21.10
2022-10-18T15:38:09.022Z,21.00
2022-10-18T15:40:46.903Z,21.10
2022-10-18T15:43:43.846Z,21.10
2022-10-18T15:46:39.140Z,21.10
2022-10-18T15:49:54.796Z,21.10
2022-10-18T15:52:46.205Z,21.00
2022-10-18T15:56:01.660Z,21.00
2022-10-18T15:58:52.779Z,21.00
2022-10-18T16:01:39.657Z,20.90
2022-10-18T16:04:26.352Z,21.00
2022-10-18T16:07:02.793Z,20.90
2022-10-18T16:09:43.235Z,20.90
2022-10-18T16:12:23.565Z,20.90
2022-10-18T16:15:03.468Z,20.80
2022-10-18T16:17:42.561Z,20.80
2022-10-18T16:20:29.193Z,20.80
2022-10-18T16:23:05.629Z,20.80
2022-10-18T16:25:40.436Z,20.80
2022-10-18T16:28:25.113Z,20.80
2022-10-18T16:31:08.233Z,20.80
2022-10-18T16:33:43.869Z,20.70
2022-10-18T16:36:32.368Z,20.70
2022-10-18T16:39:15.666Z,20.70
2022-10-18T16:41:51.080Z,20.70
2022-10-18T16:44:31.927Z,20.60
2022-10-18T16:47:11.985Z,20.50
2022-10-18T16:49:49.348Z,20.50
2022-10-18T16:52:24.367Z,20.40
2022-10-18T16:55:17.701Z,20.40
2022-10-18T16:57:55.299Z,20.20
2022-10-18T17:00:31.147Z,20.20
2022-10-18T17:03:13.199Z,20.20
2022-10-18T17:05:49.009Z,20.20
2022-10-18T17:08:30.429Z,20.20
2022-10-18T17:11:11.623Z,20.20
2022-10-18T17:13:49.042Z,20.20
2022-10-18T17:17:12.394Z,20.20
2022-10-18T17:19:51.069Z,20.30
2022-10-18T17:22:25.608Z,20.30
2022-10-18T17:25:00.661Z,20.30
2022-10-18T17:27:37.301Z,20.40
2022-10-18T17:30:13.586Z,20.40
2022-10-18T17:32:48.844Z,20.40
2022-10-18T17:35:27.070Z,20.50
2022-10-18T17:38:02.812Z,20.50
2022-10-18T17:40:37.967Z,20.50
2022-10-18T17:43:14.836Z,20.50
2022-10-18T17:45:53.969Z,20.40
2022-10-18T17:48:31.546Z,20.30
2022-10-18T17:51:12.812Z,20.20
2022-10-18T17:53:48.233Z,20.20
2022-10-18T17:56:23.959Z,20.30
2022-10-18T17:58:58.609Z,20.30
2022-10-18T18:01:35.174Z,20.20
2022-10-18T18:04:10.305Z,20.20
2022-10-18T18:06:46.793Z,20.10
2022-10-18T18:09:21.462Z,20.10
2022-10-18T18:11:56.639Z,20.20
2022-10-18T18:14:30.607Z,20.20
2022-10-18T18:17:05.035Z,20.20
2022-10-18T18:19:39.223Z,20.20
2022-10-18T18:22:15.336Z,20.20
2022-10-18T18:24:49.772Z,20.20
2022-10-18T18:27:24.555Z,20.20
2022-10-18T18:29:58.390Z,20.20
2022-10-18T18:32:32.165Z,20.20
2022-10-18T18:35:06.215Z,20.10
2022-10-18T18:37:44.866Z,20.20
2022-10-18T18:40:18.307Z,20.20
2022-10-18T18:43:07.063Z,20.20
2022-10-18T18:45:53.955Z,20.10
2022-10-18T18:48:27.951Z,20.10
2022-10-18T18:51:01.597Z,20.20
2022-10-18T18:53:38.129Z,20.10
2022-10-18T18:56:17.109Z,20.10
2022-10-18T18:58:52.178Z,20.10
2022-10-18T19:01:27.720Z,20.10
2022-10-18T19:04:02.850Z,20.10
2022-10-18T19:06:39.135Z,20.10
2022-10-18T19:09:21.014Z,20.10
2022-10-18T19:11:57.883Z,19.90
2022-10-18T19:14:32.374Z,19.90
2022-10-18T19:17:08.429Z,20.00
2022-10-18T19:19:46.790Z,20.10
2022-10-18T19:22:20.609Z,20.10
2022-10-18T19:24:56.465Z,20.00
2022-10-18T19:27:30.327Z,20.10
2022-10-18T19:30:04.559Z,20.10
2022-10-18T19:32:38.575Z,20.10
2022-10-18T19:35:13.017Z,20.10
2022-10-18T19:37:46.583Z,20.00
2022-10-18T19:40:22.383Z,20.00
2022-10-18T19:42:56.724Z,20.10
2022-10-18T19:45:40.679Z,19.90
2022-10-18T19:48:14.853Z,20.00
2022-10-18T19:50:48.124Z,20.00
2022-10-18T19:53:22.143Z,20.00
2022-10-18T19:56:03.192Z,20.00
2022-10-18T19:58:37.503Z,20.10
2022-10-18T20:01:11.570Z,20.10
2022-10-18T20:03:49.377Z,20.10
2022-10-18T20:06:24.000Z,20.10
2022-10-18T20:08:58.718Z,20.10
2022-10-18T20:11:35.615Z,20.10
2022-10-18T20:14:13.949Z,20.10
2022-10-18T20:16:47.380Z,20.10
2022-10-18T20:19:21.396Z,20.10
2022-10-18T20:21:58.881Z,20.10
2022-10-18T20:24:33.126Z,20.00
2022-10-18T20:27:11.512Z,20.00
2022-10-18T20:29:45.689Z,19.90
2022-10-18T20:32:20.051Z,19.80
2022-10-18T20:34:53.838Z,19.90
2022-10-18T20:37:28.224Z,19.90
2022-10-18T20:40:02.575Z,19.90
2022-10-18T20:42:38.714Z,19.80
2022-10-18T20:45:14.223Z,19.80
2022-10-18T20:47:48.269Z,19.80
2022-10-18T20:50:22.735Z,19.80
2022-10-18T20:52:56.950Z,19.80
2022-10-18T20:55:32.308Z,19.80
2022-10-18T20:58:07.789Z,19.90
2022-10-18T21:00:42.289Z,19.90
2022-10-18T21:03:16.542Z,19.90
2022-10-18T21:05:50.502Z,19.80
2022-10-18T21:08:24.334Z,19.80
2022-10-18T21:10:58.066Z,19.90
2022-10-18T21:13:36.902Z,19.90
2022-10-18T21:16:11.075Z,19.90
2022-10-18T21:18:44.347Z,19.90
2022-10-18T21:21:19.594Z,20.00
2022-10-18T21:23:53.133Z,20.00
2022-10-18T21:26:28.473Z,20.00
2022-10-18T21:29:04.235Z,19.90
2022-10-18T21:31:41.125Z,19.90
2022-10-18T21:34:17.968Z,20.00
2022-10-18T21:36:53.224Z,20.00
2022-10-18T21:39:32.428Z,20.00
2022-10-18T21:42:07.038Z,20.00
2022-10-18T21:44:46.250Z,19.90
2022-10-18T21:47:20.474Z,19.90
2022-10-18T21:49:54.747Z,19.80
2022-10-18T21:52:29.108Z,19.70
2022-10-18T21:55:03.157Z,19.80
2022-10-18T22:00:19.981Z,19.80
2022-10-18T22:02:53.566Z,19.80
2022-10-18T22:05:28.031Z,19.80
2022-10-18T22:08:01.706Z,19.90
2022-10-18T22:10:36.029Z,19.90
2022-10-18T22:13:09.841Z,20.00
2022-10-18T22:15:45.717Z,20.00
2022-10-18T22:18:20.001Z,20.00
2022-10-18T22:20:59.632Z,20.00
2022-10-18T22:23:37.938Z,20.00
2022-10-18T22:26:14.702Z,20.00
2022-10-18T22:28:51.586Z,20.10
2022-10-18T22:31:28.884Z,20.00
2022-10-18T22:34:04.906Z,20.00
2022-10-18T22:36:39.869Z,20.00
2022-10-18T22:39:15.665Z,20.10
2022-10-18T22:41:53.355Z,20.00
2022-10-18T22:44:27.887Z,20.00
2022-10-18T22:47:03.620Z,20.00
2022-10-18T22:49:37.007Z,20.00
2022-10-18T22:52:11.439Z,20.00
2022-10-18T22:54:45.785Z,20.00
2022-10-18T22:57:19.818Z,20.00
2022-10-18T22:59:53.224Z,20.00
2022-10-18T23:02:29.412Z,20.00
2022-10-18T23:05:03.869Z,20.00
2022-10-18T23:07:39.305Z,20.00
2022-10-18T23:10:13.710Z,20.00
2022-10-18T23:12:47.662Z,20.00
2022-10-18T23:15:21.883Z,20.00
2022-10-18T23:17:57.954Z,20.00
2022-10-18T23:20:33.030Z,20.00
2022-10-18T23:23:06.803Z,19.90
2022-10-18T23:25:41.166Z,19.90
2022-10-18T23:28:15.422Z,19.90
2022-10-18T23:30:49.646Z,19.90
2022-10-18T23:33:25.931Z,20.00
2022-10-18T23:36:01.716Z,19.90
2022-10-18T23:38:35.243Z,19.90
2022-10-18T23:41:09.625Z,19.80
2022-10-18T23:43:43.090Z,19.80
2022-10-18T23:46:18.817Z,19.80
2022-10-18T23:48:55.759Z,19.90
2022-10-18T23:54:58.655Z,19.90
2022-10-18T23:57:33.275Z,19.90
